Lotus — FAD4180 — position and weather

sailwx.info

Track history (hours):
 
Tides and Currents Weather Stations Pressure Air Temp Water Temp Dewpoint Dewpoint Depression Visibility Wind Speed Wind Dir Waves Ship Positions

Lotus

Last reported at 2018-May-17 20:21 UTC. Time now 2018-Jul-23 05:17 UTC.
Position N 14°28' W 060°52'.
Warning: this ship's position is months out of date.

Length 15 m.

Type: Sailing vessel. MMSI: 347016250.

Date/timePositionNaut miles runAvg speedWind from/ knotsBaromVisibWave heightAir tempDewpointWater temp
2018-May-17 20:21N 14°28' W 060°52'0 1.1
2018-May-17 19:56N 14°28' W 060°52'2 2.5
2018-May-17 19:15N 14°27' W 060°54'1 0.2
2018-May-17 16:48N 14°26' W 060°53'2 5.2
2018-May-17 16:26N 14°27' W 060°55'5 4.9
2018-May-17 15:30N 14°27' W 060°60'  
2018-May-10 15:33N 16°39' W 061°50'1 7.7
2018-May-10 15:26N 16°39' W 061°51'3 7.8
2018-May-10 15:00N 16°43' W 061°51'4 7.6
2018-May-10 14:27N 16°47' W 061°51'3 7.4
2018-May-10 14:00N 16°50' W 061°52'4 6.7
2018-May-10 13:26N 16°54' W 061°52'3 6.7
2018-May-10 12:59N 16°57' W 061°53'8 0.4
2018-May-09 15:30N 17°05' W 061°55'4 6.0
2018-May-09 14:53N 17°08' W 061°53'3 6.6
2018-May-09 14:30N 17°10' W 061°51'3 6.4
2018-May-09 14:00N 17°10' W 061°48'3 5.9
2018-May-09 13:29N 17°09' W 061°45'  
Track history (hours):
 
Tides and Currents Weather Stations Pressure Air Temp Water Temp Dewpoint Dewpoint Depression Visibility Wind Speed Wind Dir Waves Ship Positions

Lotus

Last reported at 2018-May-17 20:21 UTC. Time now 2018-Jul-23 05:17 UTC.
Position N 14°28' W 060°52'.
Warning: this ship's position is months out of date.

Length 15 m.

Type: Sailing vessel. MMSI: 347016250.

Date/timePositionNaut miles runAvg speedWind from/ knotsBaromVisibWave heightAir tempDewpointWater temp
2018-May-17 20:21N 14°28' W 060°52'0 1.1
2018-May-17 19:56N 14°28' W 060°52'2 2.5
2018-May-17 19:15N 14°27' W 060°54'1 0.2
2018-May-17 16:48N 14°26' W 060°53'2 5.2
2018-May-17 16:26N 14°27' W 060°55'5 4.9
2018-May-17 15:30N 14°27' W 060°60'  
2018-May-10 15:33N 16°39' W 061°50'1 7.7
2018-May-10 15:26N 16°39' W 061°51'3 7.8
2018-May-10 15:00N 16°43' W 061°51'4 7.6
2018-May-10 14:27N 16°47' W 061°51'3 7.4
2018-May-10 14:00N 16°50' W 061°52'4 6.7
2018-May-10 13:26N 16°54' W 061°52'3 6.7
2018-May-10 12:59N 16°57' W 061°53'8 0.4
2018-May-09 15:30N 17°05' W 061°55'4 6.0
2018-May-09 14:53N 17°08' W 061°53'3 6.6
2018-May-09 14:30N 17°10' W 061°51'3 6.4
2018-May-09 14:00N 17°10' W 061°48'3 5.9
2018-May-09 13:29N 17°09' W 061°45'  

Dump ship's entire track history